TimeEDT,TemperatureF,Dew PointF,Humidity,Sea Level PressureIn,VisibilityMPH,Wind Direction,Wind SpeedMPH,Gust SpeedMPH,PrecipitationIn,Events,Conditions,WindDirDegrees,DateUTC
12:53 AM,26.1,10.0,51,30.27,10.0,West,4.6,-,N/A,,Clear,280,2013-04-03 04:53:00
1:53 AM,26.1,10.9,53,30.27,10.0,WNW,4.6,-,N/A,,Clear,290,2013-04-03 05:53:00
2:53 AM,26.1,10.0,51,30.28,10.0,WNW,3.5,-,N/A,,Clear,290,2013-04-03 06:53:00
3:53 AM,24.1,12.0,60,30.29,10.0,West,3.5,-,N/A,,Clear,280,2013-04-03 07:53:00
4:53 AM,23.0,12.0,63,30.30,10.0,West,3.5,-,N/A,,Clear,270,2013-04-03 08:53:00
5:53 AM,21.9,12.0,66,30.31,10.0,WSW,3.5,-,N/A,,Clear,250,2013-04-03 09:53:00
6:53 AM,21.9,12.9,68,30.33,10.0,Calm,Calm,-,N/A,,Clear,0,2013-04-03 10:53:00
7:53 AM,21.0,14.0,74,30.34,10.0,West,3.5,-,N/A,,Clear,260,2013-04-03 11:53:00
8:53 AM,28.0,17.1,63,30.35,10.0,NW,9.2,-,N/A,,Clear,310,2013-04-03 12:53:00
9:53 AM,35.1,16.0,46,30.38,10.0,NW,9.2,-,N/A,,Clear,320,2013-04-03 13:53:00
10:53 AM,37.9,19.0,47,30.39,10.0,NNW,12.7,-,N/A,,Clear,340,2013-04-03 14:53:00
11:53 AM,39.9,15.1,36,30.40,10.0,NW,12.7,19.6,N/A,,Scattered Clouds,320,2013-04-03 15:53:00
12:53 PM,42.1,12.9,31,30.41,10.0,NNW,12.7,20.7,N/A,,Clear,340,2013-04-03 16:53:00
1:53 PM,42.1,10.9,28,30.40,10.0,NW,16.1,24.2,N/A,,Clear,320,2013-04-03 17:53:00
2:53 PM,43.0,8.1,24,30.40,10.0,Variable,5.8,19.6,N/A,,Clear,0,2013-04-03 18:53:00
3:53 PM,44.1,8.1,23,30.38,10.0,North,13.8,-,N/A,,Clear,360,2013-04-03 19:53:00
4:53 PM,45.0,8.1,22,30.38,10.0,NNE,5.8,-,N/A,,Clear,30,2013-04-03 20:53:00
5:53 PM,44.1,7.0,22,30.38,10.0,North,9.2,-,N/A,,Clear,360,2013-04-03 21:53:00
6:53 PM,43.0,6.1,22,30.38,10.0,Calm,Calm,-,N/A,,Clear,0,2013-04-03 22:53:00
7:53 PM,39.0,10.0,30,30.38,10.0,East,5.8,-,N/A,,Clear,90,2013-04-03 23:53:00
8:53 PM,36.0,16.0,44,30.38,10.0,ESE,9.2,-,N/A,,Clear,110,2013-04-04 00:53:00
9:53 PM,33.1,14.0,46,30.38,10.0,ESE,8.1,-,N/A,,Clear,110,2013-04-04 01:53:00
10:53 PM,30.9,14.0,50,30.38,10.0,ESE,5.8,-,N/A,,Clear,120,2013-04-04 02:53:00
11:53 PM,30.0,14.0,51,30.38,10.0,ESE,6.9,-,N/A,,Clear,120,2013-04-04 03:53:00